Time;durP1;ratioP1;P1;durP2;ratioP2;P2;SDS_P1;SDS_P2;PMS_P1;PMS_P2;Temp;Humidity;BMP_temperature;BMP_pressure;BME280_temperature;BME280_humidity;BME280_pressure;Samples;Min_cycle;Max_cycle;Signal;HPM_P1;HPM_P2
2021/11/07 00:02:37;;;;;;;28.13;17.30;;;3.70;99.90;;;;;;5036249;28;20462;-90
2021/11/07 00:05:06;;;;;;;26.63;16.57;;;3.70;99.90;;;;;;5035778;28;20550;-89
2021/11/07 00:07:42;;;;;;;27.00;16.33;;;3.70;99.90;;;;;;5034660;28;20455;-90
2021/11/07 00:10:15;;;;;;;23.70;15.50;;;3.60;99.90;;;;;;5037345;28;20453;-90
2021/11/07 00:12:43;;;;;;;24.93;16.13;;;3.70;99.90;;;;;;5036191;28;20445;-89
2021/11/07 00:15:15;;;;;;;25.87;16.03;;;3.70;99.90;;;;;;5034064;28;20473;-89
2021/11/07 00:17:47;;;;;;;26.00;16.43;;;3.80;99.90;;;;;;5034024;28;20460;-89
2021/11/07 00:20:19;;;;;;;23.40;15.60;;;3.70;99.90;;;;;;5124407;22;20493;-89
2021/11/07 00:22:51;;;;;;;25.50;15.20;;;3.70;99.90;;;;;;5083123;28;20516;-90
2021/11/07 00:25:24;;;;;;;29.97;18.67;;;3.70;99.90;;;;;;5082138;28;20467;-90
2021/11/07 00:27:54;;;;;;;25.70;15.97;;;3.70;99.90;;;;;;5084471;28;20468;-89
2021/11/07 00:30:32;;;;;;;23.03;15.30;;;3.70;99.90;;;;;;5083687;28;20873;-91
2021/11/07 00:33:11;;;;;;;24.47;17.10;;;3.70;99.90;;;;;;5086172;28;20448;-89
2021/11/07 00:36:09;;;;;;;26.03;15.63;;;3.60;99.90;;;;;;5096903;28;20446;-90
2021/11/07 00:38:51;;;;;;;23.03;14.13;;;3.60;99.90;;;;;;5083774;28;20933;-90
2021/11/07 00:41:37;;;;;;;25.57;14.90;;;3.50;99.90;;;;;;5083354;28;20458;-90
2021/11/07 00:44:11;;;;;;;26.13;14.63;;;3.50;99.90;;;;;;5097468;28;20456;-89
2021/11/07 00:49:33;;;;;;;19.13;13.73;;;3.40;99.90;;;;;;5089180;28;20466;-88
2021/11/07 00:52:15;;;;;;;24.27;16.27;;;3.30;99.90;;;;;;5097390;28;20442;-90
2021/11/07 00:54:54;;;;;;;22.67;15.20;;;3.40;99.90;;;;;;5087040;28;20506;-91
2021/11/07 00:57:28;;;;;;;20.80;14.67;;;3.30;99.90;;;;;;5097128;28;20475;-89
2021/11/07 01:00:04;;;;;;;23.73;15.77;;;3.30;99.90;;;;;;5095758;28;20474;-88
2021/11/07 01:02:39;;;;;;;20.80;14.33;;;3.40;99.90;;;;;;5087930;28;20451;-91
2021/11/07 01:05:17;;;;;;;23.00;16.20;;;3.40;99.90;;;;;;5078205;28;20454;-91
2021/11/07 01:07:51;;;;;;;23.00;14.70;;;3.40;99.90;;;;;;5079992;28;20491;-89
2021/11/07 01:10:24;;;;;;;23.90;15.33;;;3.30;99.90;;;;;;5080712;28;20494;-91
2021/11/07 01:12:51;;;;;;;24.50;15.10;;;3.30;99.90;;;;;;5082914;28;20541;-90
2021/11/07 01:15:20;;;;;;;22.40;15.23;;;3.30;99.90;;;;;;5092022;28;20536;-89
2021/11/07 01:17:48;;;;;;;21.77;14.27;;;3.30;99.90;;;;;;5089585;28;20434;-92
2021/11/07 01:20:17;;;;;;;22.10;15.77;;;3.30;99.90;;;;;;5093625;28;20491;-90
2021/11/07 01:22:53;;;;;;;19.90;14.30;;;3.40;99.90;;;;;;5091008;28;20503;-89
2021/11/07 01:25:20;;;;;;;23.80;15.50;;;3.40;99.90;;;;;;5088164;28;20465;-91
2021/11/07 01:27:47;;;;;;;24.37;15.70;;;3.40;99.90;;;;;;5090252;28;20456;-90
2021/11/07 01:30:16;;;;;;;23.83;14.60;;;3.40;99.90;;;;;;5083046;28;20494;-89
2021/11/07 01:32:47;;;;;;;19.53;14.60;;;3.50;99.90;;;;;;5086931;28;20435;-90
2021/11/07 01:35:19;;;;;;;17.60;12.90;;;3.50;99.90;;;;;;5084441;28;20907;-89
2021/11/07 01:37:56;;;;;;;14.90;12.30;;;3.50;99.90;;;;;;5084070;28;20461;-89
2021/11/07 01:40:25;;;;;;;18.63;13.13;;;3.50;99.90;;;;;;5084822;28;20474;-90
2021/11/07 01:42:55;;;;;;;20.10;13.50;;;3.60;99.90;;;;;;5085540;28;20945;-90
2021/11/07 01:45:26;;;;;;;17.40;12.73;;;3.60;99.90;;;;;;5083116;28;20442;-90
2021/11/07 01:47:55;;;;;;;20.90;13.83;;;3.70;99.90;;;;;;5091918;28;20462;-90
2021/11/07 01:50:23;;;;;;;22.73;13.90;;;3.70;99.90;;;;;;5083890;28;20471;-89
2021/11/07 01:53:02;;;;;;;21.27;15.40;;;3.80;99.90;;;;;;5083354;28;20506;-90
2021/11/07 01:55:29;;;;;;;24.80;15.30;;;3.80;99.90;;;;;;5082586;28;20471;-90
2021/11/07 01:57:56;;;;;;;23.80;15.90;;;3.90;99.90;;;;;;5082968;28;20797;-90
2021/11/07 02:00:26;;;;;;;21.57;14.83;;;3.90;99.90;;;;;;5079568;28;20461;-90
2021/11/07 02:02:53;;;;;;;23.60;16.67;;;3.90;99.90;;;;;;5085213;28;20454;-90
2021/11/07 02:05:20;;;;;;;20.07;14.90;;;3.90;99.90;;;;;;5083661;28;20811;-90
2021/11/07 02:07:48;;;;;;;19.23;13.93;;;3.90;99.90;;;;;;5084165;28;20439;-90
2021/11/07 02:10:19;;;;;;;18.90;13.20;;;3.90;99.90;;;;;;5085278;28;20477;-89
2021/11/07 02:12:46;;;;;;;19.87;14.00;;;3.90;99.90;;;;;;5097401;28;20465;-89
2021/11/07 02:15:15;;;;;;;18.83;14.57;;;3.90;99.90;;;;;;5092636;28;20542;-89
2021/11/07 02:17:42;;;;;;;20.83;15.80;;;3.90;99.90;;;;;;5093676;28;20486;-89
2021/11/07 02:20:12;;;;;;;21.23;14.43;;;3.90;99.90;;;;;;5099639;28;20461;-90
2021/11/07 02:22:42;;;;;;;18.60;13.13;;;3.90;99.90;;;;;;5094245;28;20448;-89
2021/11/07 02:25:10;;;;;;;19.17;15.17;;;3.80;99.90;;;;;;5091562;28;20440;-89
2021/11/07 02:27:37;;;;;;;20.10;12.30;;;3.90;99.90;;;;;;5095707;28;20443;-90
2021/11/07 02:30:06;;;;;;;25.23;16.20;;;3.90;99.90;;;;;;5094110;28;20455;-88
2021/11/07 02:35:27;;;;;;;19.37;14.10;;;3.90;99.90;;;;;;5093048;28;20546;-90
2021/11/07 02:37:59;;;;;;;21.53;14.70;;;3.90;99.90;;;;;;5093035;28;20435;-90
2021/11/07 02:40:32;;;;;;;22.40;15.43;;;3.80;99.90;;;;;;5090541;28;20466;-89
2021/11/07 02:43:01;;;;;;;22.43;14.50;;;3.80;99.90;;;;;;5092744;28;20445;-90
2021/11/07 02:45:32;;;;;;;20.47;15.57;;;3.70;99.90;;;;;;5091446;28;20446;-89
2021/11/07 02:48:11;;;;;;;27.40;18.33;;;3.70;99.90;;;;;;5091116;28;20455;-90
2021/11/07 02:50:38;;;;;;;30.70;20.40;;;3.60;99.90;;;;;;5096574;28;20518;-88
2021/11/07 02:53:12;;;;;;;24.03;17.70;;;3.60;99.90;;;;;;5097594;28;20501;-90
2021/11/07 02:55:42;;;;;;;26.03;19.30;;;3.60;99.90;;;;;;5090027;28;20475;-89
2021/11/07 02:58:09;;;;;;;29.20;18.83;;;3.60;99.90;;;;;;5089716;28;20503;-89
2021/11/07 03:00:40;;;;;;;28.93;19.20;;;3.60;99.90;;;;;;5097532;28;20454;-89
2021/11/07 03:03:09;;;;;;;24.27;17.27;;;3.60;99.90;;;;;;5094634;28;20500;-90
2021/11/07 03:05:39;;;;;;;28.60;19.00;;;3.60;99.90;;;;;;5095791;28;20445;-89
2021/11/07 03:08:07;;;;;;;27.13;20.47;;;3.60;99.90;;;;;;5091345;28;20523;-89
2021/11/07 03:10:39;;;;;;;28.17;18.53;;;3.60;99.90;;;;;;5093020;28;20451;-89
2021/11/07 03:13:13;;;;;;;28.17;19.90;;;3.50;99.90;;;;;;5095063;28;20502;-90
2021/11/07 03:15:50;;;;;;;26.87;18.33;;;3.50;99.90;;;;;;5089584;28;20770;-89
2021/11/07 03:18:19;;;;;;;21.77;16.73;;;3.50;99.90;;;;;;5097461;28;20444;-89
2021/11/07 03:20:49;;;;;;;21.40;16.30;;;3.40;99.90;;;;;;5097170;28;20535;-90
2021/11/07 03:23:22;;;;;;;24.20;17.27;;;3.40;99.90;;;;;;5095617;28;20450;-89
2021/11/07 03:26:01;;;;;;;29.60;18.67;;;3.40;99.90;;;;;;5091228;28;20829;-90
2021/11/07 03:28:32;;;;;;;22.00;16.77;;;3.40;99.90;;;;;;5093090;28;20481;-88
2021/11/07 03:31:04;;;;;;;24.73;17.07;;;3.40;99.90;;;;;;5097869;28;20546;-90
2021/11/07 03:33:36;;;;;;;24.10;17.50;;;3.50;99.90;;;;;;5095881;28;20432;-89
2021/11/07 03:36:05;;;;;;;25.63;17.80;;;3.40;99.90;;;;;;5098528;28;20505;-90
2021/11/07 03:38:34;;;;;;;26.20;19.23;;;3.30;99.90;;;;;;5096941;28;20466;-89
2021/11/07 03:41:01;;;;;;;24.53;17.90;;;3.30;99.90;;;;;;5098658;28;20442;-88
2021/11/07 03:43:29;;;;;;;31.03;20.77;;;3.20;99.90;;;;;;5092422;28;20963;-90
2021/11/07 03:46:00;;;;;;;22.03;18.50;;;3.20;99.90;;;;;;5091654;28;20523;-89
2021/11/07 03:48:30;;;;;;;22.77;17.53;;;3.20;99.90;;;;;;5095041;28;20467;-90
2021/11/07 03:51:00;;;;;;;29.83;18.10;;;3.30;99.90;;;;;;5092177;28;20475;-89
2021/11/07 03:53:27;;;;;;;22.73;18.17;;;3.30;99.90;;;;;;5092702;28;20472;-89
2021/11/07 03:55:55;;;;;;;26.27;20.10;;;3.30;99.90;;;;;;5096180;28;20478;-89
2021/11/07 03:58:28;;;;;;;28.90;20.30;;;3.30;99.90;;;;;;5097321;28;20436;-88
2021/11/07 04:00:58;;;;;;;25.50;18.00;;;3.30;99.90;;;;;;5098061;28;20427;-89
2021/11/07 04:03:25;;;;;;;26.50;18.67;;;3.30;99.90;;;;;;5097937;28;20432;-89
2021/11/07 04:05:52;;;;;;;24.73;18.30;;;3.30;99.90;;;;;;5098195;28;20462;-88
2021/11/07 04:08:23;;;;;;;25.20;18.57;;;3.20;99.90;;;;;;5097583;28;20505;-88
2021/11/07 04:10:54;;;;;;;26.50;18.20;;;3.20;99.90;;;;;;5098037;28;20435;-89
2021/11/07 04:13:31;;;;;;;27.83;18.83;;;3.20;99.90;;;;;;5097887;28;20510;-90
2021/11/07 04:15:58;;;;;;;26.03;17.87;;;3.30;99.90;;;;;;5097942;28;20476;-88
2021/11/07 04:18:25;;;;;;;23.17;17.67;;;3.30;99.90;;;;;;5097419;28;20431;-89
2021/11/07 04:20:51;;;;;;;25.07;18.27;;;3.30;99.90;;;;;;5097777;28;20455;-89
2021/11/07 04:23:18;;;;;;;23.00;17.00;;;3.30;99.90;;;;;;5097559;28;20506;-89
2021/11/07 04:25:48;;;;;;;27.43;19.30;;;3.20;99.90;;;;;;5097688;28;20443;-89
2021/11/07 04:28:20;;;;;;;23.30;17.20;;;3.20;99.90;;;;;;5097280;28;20502;-88
2021/11/07 04:30:51;;;;;;;22.03;16.53;;;3.20;99.90;;;;;;5097741;28;20451;-88
2021/11/07 04:33:23;;;;;;;24.90;18.03;;;3.10;99.90;;;;;;5097834;28;20427;-89
2021/11/07 04:35:52;;;;;;;24.67;18.37;;;3.10;99.90;;;;;;5097385;28;20512;-88
2021/11/07 04:38:23;;;;;;;22.30;17.33;;;3.10;99.90;;;;;;5096515;28;20509;-89
2021/11/07 04:40:54;;;;;;;27.90;19.10;;;3.10;99.90;;;;;;5097399;28;20482;-88
2021/11/07 04:43:24;;;;;;;23.90;18.73;;;3.10;99.90;;;;;;5097066;28;20440;-89
2021/11/07 04:45:52;;;;;;;22.00;17.13;;;3.10;99.90;;;;;;5097145;28;20466;-88
2021/11/07 04:48:19;;;;;;;26.43;17.77;;;3.20;99.90;;;;;;5097024;28;20445;-89
2021/11/07 04:50:47;;;;;;;23.77;17.63;;;3.10;99.90;;;;;;5097611;28;20561;-89
2021/11/07 04:53:15;;;;;;;26.97;17.20;;;3.10;99.90;;;;;;5097024;28;20462;-89
2021/11/07 04:55:48;;;;;;;20.63;15.60;;;3.10;99.90;;;;;;5097295;28;20467;-88
2021/11/07 04:58:25;;;;;;;20.57;15.60;;;3.20;99.90;;;;;;5097143;28;20436;-88
2021/11/07 05:01:03;;;;;;;20.10;14.97;;;3.20;99.90;;;;;;5096533;28;20566;-89
2021/11/07 05:03:36;;;;;;;21.87;16.10;;;3.30;99.90;;;;;;5079834;28;20457;-89
2021/11/07 05:08:51;;;;;;;25.83;17.93;;;3.20;99.90;;;;;;5075971;28;20486;-89
2021/11/07 05:11:21;;;;;;;19.43;15.43;;;3.10;99.90;;;;;;5084879;28;20424;-89
2021/11/07 05:13:51;;;;;;;20.63;16.40;;;3.10;99.90;;;;;;5101374;28;20427;-89
2021/11/07 05:16:24;;;;;;;21.17;16.67;;;3.00;99.90;;;;;;5101373;28;20478;-89
2021/11/07 05:18:54;;;;;;;21.93;17.73;;;2.90;99.90;;;;;;5101175;28;20513;-90
2021/11/07 05:21:25;;;;;;;25.23;17.03;;;2.90;99.90;;;;;;5101737;28;20468;-88
2021/11/07 05:24:00;;;;;;;20.60;16.57;;;3.00;99.90;;;;;;5101744;28;20454;-89
2021/11/07 05:26:33;;;;;;;18.20;15.57;;;3.00;99.90;;;;;;5101653;28;20506;-89
2021/11/07 05:29:05;;;;;;;22.73;16.10;;;3.10;99.90;;;;;;5100747;28;20463;-88
2021/11/07 05:31:35;;;;;;;18.67;15.13;;;3.10;99.90;;;;;;5101157;28;20450;-88
2021/11/07 05:34:07;;;;;;;22.47;17.37;;;3.20;99.90;;;;;;5101217;28;20455;-89
2021/11/07 05:36:44;;;;;;;22.47;16.63;;;3.20;99.90;;;;;;5101070;28;20494;-88
2021/11/07 05:39:12;;;;;;;20.13;15.80;;;3.20;99.90;;;;;;5101031;28;20518;-88
2021/11/07 05:41:45;;;;;;;22.47;16.10;;;3.20;99.90;;;;;;5101149;28;20522;-88
2021/11/07 05:44:32;;;;;;;22.97;17.83;;;3.30;99.90;;;;;;5101349;28;20473;-88
2021/11/07 05:47:06;;;;;;;21.07;15.43;;;3.30;99.90;;;;;;5102022;28;20442;-88
2021/11/07 05:49:45;;;;;;;24.63;15.77;;;3.20;99.90;;;;;;5101127;28;20462;-89
2021/11/07 05:52:17;;;;;;;21.00;15.37;;;3.20;99.90;;;;;;5100855;28;20431;-89
2021/11/07 05:54:53;;;;;;;19.87;16.30;;;3.30;99.90;;;;;;5100596;28;20435;-90
2021/11/07 05:57:19;;;;;;;21.57;15.10;;;3.30;99.90;;;;;;5099949;28;20450;-89
2021/11/07 05:59:46;;;;;;;18.73;15.53;;;3.30;99.90;;;;;;5100471;28;20461;-88
2021/11/07 06:02:15;;;;;;;23.00;16.63;;;3.20;99.90;;;;;;5100378;28;20452;-90
2021/11/07 06:04:42;;;;;;;21.73;14.87;;;3.20;99.90;;;;;;5099716;28;20451;-89
2021/11/07 06:07:09;;;;;;;18.27;14.30;;;3.20;99.90;;;;;;5100130;28;20462;-89
2021/11/07 06:09:36;;;;;;;21.13;16.20;;;3.10;99.90;;;;;;5099626;28;20463;-88
2021/11/07 06:12:04;;;;;;;21.27;16.43;;;3.10;99.90;;;;;;5099742;28;20434;-89
2021/11/07 06:14:31;;;;;;;22.10;15.73;;;3.10;99.90;;;;;;5099437;28;20523;-89
2021/11/07 06:16:58;;;;;;;20.60;15.10;;;3.10;99.90;;;;;;5099408;28;20484;-88
2021/11/07 07:59:38;;;;;;;17.83;13.80;;;6.70;99.90;;;;;;4042528;22;20812;-90
2021/11/07 08:02:05;;;;;;;15.97;12.67;;;7.00;99.90;;;;;;5135029;28;20502;-90
2021/11/07 08:04:44;;;;;;;14.60;12.63;;;7.00;99.90;;;;;;5128850;27;20446;-92
2021/11/07 08:07:18;;;;;;;18.13;13.53;;;7.10;99.90;;;;;;5115838;28;20451;-90
2021/11/07 08:09:54;;;;;;;15.10;12.60;;;7.10;99.90;;;;;;5132373;27;20468;-90
2021/11/07 08:12:29;;;;;;;16.07;13.07;;;6.90;99.90;;;;;;5139303;27;20816;-90
2021/11/07 08:15:06;;;;;;;14.50;12.00;;;6.80;99.90;;;;;;5134312;27;20813;-90
2021/11/07 08:17:44;;;;;;;16.13;12.20;;;6.80;99.90;;;;;;5124273;28;20426;-91
2021/11/07 08:20:17;;;;;;;16.10;12.60;;;6.70;99.90;;;;;;5099279;28;20458;-90
2021/11/07 08:22:51;;;;;;;17.97;13.60;;;6.70;99.90;;;;;;5102450;27;20450;-90
2021/11/07 08:25:22;;;;;;;13.17;11.40;;;6.70;99.90;;;;;;5147961;27;20478;-89
2021/11/07 08:28:00;;;;;;;17.30;12.63;;;6.80;99.90;;;;;;5154578;27;20424;-89
2021/11/07 08:30:34;;;;;;;15.83;12.53;;;6.80;99.90;;;;;;5125977;27;20461;-91
2021/11/07 08:33:11;;;;;;;14.57;11.53;;;6.90;99.90;;;;;;5117191;27;20456;-90
2021/11/07 08:35:43;;;;;;;17.20;12.37;;;7.00;99.90;;;;;;5118413;28;20519;-90
2021/11/07 08:38:21;;;;;;;15.23;13.07;;;7.00;99.90;;;;;;5122217;28;20450;-89
2021/11/07 08:41:04;;;;;;;15.17;12.60;;;7.10;99.90;;;;;;5120055;28;20498;-90
2021/11/07 09:03:42;;;;;;;13.87;12.00;;;7.70;99.90;;;;;;5119875;28;20456;-91
2021/11/07 09:12:15;;;;;;;9.93;8.20;;;8.20;99.90;;;;;;5132012;28;20429;-89
2021/11/07 09:14:43;;;;;;;11.67;9.40;;;8.30;99.90;;;;;;5151301;27;20483;-89
2021/11/07 09:17:13;;;;;;;11.67;10.10;;;8.40;99.90;;;;;;5153373;27;20479;-86
2021/11/07 09:19:43;;;;;;;12.70;11.27;;;8.60;99.90;;;;;;5139516;28;20480;-89
2021/11/07 09:22:14;;;;;;;10.73;8.70;;;8.80;99.90;;;;;;5135604;28;20510;-90
2021/11/07 09:24:48;;;;;;;11.10;9.57;;;8.90;99.90;;;;;;5130512;28;20456;-89
2021/11/07 09:27:21;;;;;;;10.80;9.70;;;9.10;99.90;;;;;;5154474;27;20455;-88
2021/11/07 09:29:55;;;;;;;13.77;9.03;;;9.90;99.90;;;;;;5150130;28;20492;-89
2021/11/07 09:32:36;;;;;;;12.40;8.00;;;10.60;99.90;;;;;;5144166;27;20444;-89
2021/11/07 09:35:18;;;;;;;10.00;8.63;;;10.60;99.90;;;;;;5135019;28;20513;-90
2021/11/07 09:37:49;;;;;;;11.30;8.50;;;10.30;99.90;;;;;;5118581;28;20815;-89
2021/11/07 09:40:18;;;;;;;9.03;8.13;;;10.20;99.90;;;;;;5142063;27;20555;-90
2021/11/07 09:45:44;;;;;;;10.73;8.20;;;9.70;99.90;;;;;;5105218;28;20460;-89
2021/11/07 09:48:14;;;;;;;9.43;7.47;;;9.70;99.90;;;;;;5111291;28;20452;-89
2021/11/07 09:50:48;;;;;;;10.23;7.93;;;9.60;99.90;;;;;;5129588;28;20458;-90
2021/11/07 09:53:16;;;;;;;10.53;9.30;;;9.70;99.90;;;;;;5130228;28;20443;-89
2021/11/07 09:55:44;;;;;;;9.30;8.13;;;9.70;99.90;;;;;;5144604;27;20502;-91
2021/11/07 09:58:13;;;;;;;8.70;7.60;;;10.00;99.90;;;;;;5141883;27;20491;-90
2021/11/07 10:00:45;;;;;;;8.60;7.70;;;10.00;99.90;;;;;;5122785;28;20468;-91
2021/11/07 10:03:16;;;;;;;7.23;6.53;;;10.00;99.90;;;;;;5121788;27;20533;-89
2021/11/07 10:05:48;;;;;;;6.87;6.17;;;10.10;99.90;;;;;;5121001;27;20441;-89
2021/11/07 10:08:23;;;;;;;7.90;6.87;;;10.10;99.90;;;;;;5123949;27;20446;-91
2021/11/07 10:11:00;;;;;;;7.80;6.90;;;10.10;99.90;;;;;;5125769;28;20457;-90
2021/11/07 10:13:30;;;;;;;7.70;6.73;;;10.30;99.90;;;;;;5126883;27;20459;-91
2021/11/07 10:16:12;;;;;;;8.60;7.23;;;10.30;99.90;;;;;;5123062;28;20523;-91
2021/11/07 10:18:55;;;;;;;9.90;7.50;;;10.30;99.90;;;;;;5128200;27;20452;-92
2021/11/07 10:21:50;;;;;;;7.13;6.40;;;10.40;99.90;;;;;;5126479;28;20445;-91
2021/11/07 10:24:32;;;;;;;8.13;6.13;;;10.60;99.90;;;;;;5125052;28;20445;-88
2021/11/07 10:27:20;;;;;;;7.13;6.53;;;11.10;99.90;;;;;;5125416;27;20516;-91
2021/11/07 10:29:51;;;;;;;6.37;5.73;;;11.40;98.90;;;;;;5120439;28;20465;-90
2021/11/07 10:32:29;;;;;;;7.23;5.77;;;11.70;98.10;;;;;;5135400;27;21019;-91
2021/11/07 10:41:57;;;;;;;7.10;5.50;;;11.80;98.00;;;;;;5113492;28;20426;-91
2021/11/07 10:53:25;;;;;;;7.40;5.00;;;14.30;92.10;;;;;;5128378;27;20526;-92
2021/11/07 10:58:50;;;;;;;6.00;4.90;;;13.70;92.30;;;;;;5133948;27;20424;-89
2021/11/07 11:01:25;;;;;;;5.33;4.83;;;13.60;92.70;;;;;;5134322;28;20463;-90
2021/11/07 11:04:05;;;;;;;4.70;4.30;;;13.00;92.80;;;;;;5118951;27;20454;-91
2021/11/07 11:06:42;;;;;;;5.67;4.87;;;12.70;93.40;;;;;;5116955;28;20442;-89
2021/11/07 11:09:22;;;;;;;6.10;4.73;;;12.50;94.10;;;;;;5117038;27;20489;-91
2021/11/07 11:12:16;;;;;;;4.90;4.40;;;12.60;94.60;;;;;;5116257;28;20459;-90
2021/11/07 11:15:34;;;;;;;5.23;4.43;;;12.60;94.50;;;;;;5119113;27;21020;-91
2021/11/07 11:24:12;;;;;;;2.87;2.57;;;13.00;93.10;;;;;;5044310;28;20437;-90
2021/11/07 11:26:59;;;;;;;4.60;3.90;;;13.10;93.00;;;;;;5120120;28;20467;-91
2021/11/07 11:29:47;;;;;;;3.57;2.70;;;13.10;92.70;;;;;;5124067;27;20470;-92
2021/11/07 11:32:26;;;;;;;6.93;4.73;;;13.30;92.80;;;;;;5126141;28;20424;-88
2021/11/07 11:35:00;;;;;;;3.87;3.57;;;13.50;92.80;;;;;;5121371;28;20440;-90
2021/11/07 11:37:39;;;;;;;6.97;5.13;;;13.40;93.00;;;;;;5115763;27;20470;-91
2021/11/07 11:40:23;;;;;;;4.80;4.40;;;13.20;93.10;;;;;;5113654;28;20506;-87
2021/11/07 11:43:09;;;;;;;3.70;3.30;;;13.20;93.30;;;;;;5119829;28;20531;-91
2021/11/07 11:45:42;;;;;;;5.00;2.47;;;13.20;93.30;;;;;;5113786;27;20510;-91
2021/11/07 11:54:55;;;;;;;4.23;2.73;;;13.40;93.30;;;;;;5058448;28;20481;-92
2021/11/07 12:05:35;;;;;;;1.30;1.20;;;15.00;92.30;;;;;;4933682;28;20454;-90
2021/11/07 12:08:47;;;;;;;1.43;1.17;;;17.10;85.80;;;;;;5086059;28;20450;-90
2021/11/07 12:11:32;;;;;;;1.37;1.10;;;17.70;81.40;;;;;;5122085;27;20446;-88
2021/11/07 12:14:36;;;;;;;2.10;1.30;;;17.80;80.00;;;;;;5133449;27;20438;-91
2021/11/07 12:17:18;;;;;;;2.13;1.33;;;17.90;80.80;;;;;;5122334;27;20511;-91
2021/11/07 12:19:54;;;;;;;3.40;3.00;;;17.70;79.50;;;;;;5113208;28;20554;-92
2021/11/07 12:22:42;;;;;;;2.40;1.77;;;17.60;80.30;;;;;;5116309;27;20501;-92
2021/11/07 12:25:15;;;;;;;1.10;0.80;;;17.80;79.90;;;;;;5114982;28;21088;-90
2021/11/07 12:27:55;;;;;;;1.67;0.80;;;17.80;80.20;;;;;;5113364;28;20491;-91
2021/11/07 12:30:30;;;;;;;1.50;0.73;;;18.50;79.60;;;;;;5115886;27;20586;-92
2021/11/07 12:33:24;;;;;;;1.20;0.80;;;19.00;78.20;;;;;;5112463;28;20446;-94
2021/11/07 12:42:39;;;;;;;4.97;1.53;;;18.70;76.70;;;;;;5129386;28;20431;-90
2021/11/07 12:45:41;;;;;;;1.30;1.10;;;18.20;78.60;;;;;;5124808;28;20497;-91
2021/11/07 12:48:50;;;;;;;1.37;1.07;;;17.60;80.40;;;;;;5124104;27;20440;-91
2021/11/07 12:51:33;;;;;;;1.30;1.13;;;17.30;82.60;;;;;;5114510;27;20435;-91
2021/11/07 12:54:10;;;;;;;1.60;0.97;;;17.00;83.40;;;;;;5100121;28;20455;-91
2021/11/07 12:57:00;;;;;;;1.63;1.10;;;17.30;84.20;;;;;;5108608;28;20468;-91
2021/11/07 12:59:42;;;;;;;2.03;1.60;;;17.40;84.50;;;;;;5100345;28;20451;-92
2021/11/07 13:02:29;;;;;;;2.70;1.33;;;17.50;84.70;;;;;;5114598;27;20530;-91
2021/11/07 13:05:07;;;;;;;1.53;1.00;;;17.50;84.70;;;;;;5115047;27;20441;-91
2021/11/07 13:07:44;;;;;;;1.43;1.33;;;17.50;85.10;;;;;;5118208;28;20451;-90
2021/11/07 13:10:23;;;;;;;2.20;1.87;;;17.70;84.60;;;;;;5117197;27;20878;-89
2021/11/07 13:12:59;;;;;;;1.30;1.20;;;17.40;84.90;;;;;;5107405;28;20438;-89
2021/11/07 13:21:24;;;;;;;3.30;1.47;;;15.90;90.90;;;;;;5106910;28;20454;-90
2021/11/07 13:24:05;;;;;;;1.93;1.57;;;15.40;92.20;;;;;;5123908;28;20454;-88
2021/11/07 13:29:37;;;;;;;2.10;1.43;;;14.40;96.10;;;;;;5107234;28;20463;-90
2021/11/07 13:32:32;;;;;;;2.40;1.80;;;13.90;98.50;;;;;;5133631;28;20436;-89
2021/11/07 13:35:09;;;;;;;1.93;1.67;;;13.70;99.90;;;;;;5111555;27;20440;-91
2021/11/07 13:37:41;;;;;;;2.47;1.70;;;13.60;99.90;;;;;;5133102;28;20473;-88
2021/11/07 13:40:17;;;;;;;1.90;1.70;;;13.50;99.90;;;;;;5122976;28;20479;-91
2021/11/07 13:42:48;;;;;;;1.27;1.13;;;13.50;99.90;;;;;;5117261;28;20944;-92
2021/11/07 13:45:26;;;;;;;1.77;1.50;;;13.50;99.90;;;;;;5114875;28;20466;-91
2021/11/07 13:47:58;;;;;;;3.27;1.83;;;13.50;99.90;;;;;;5116229;28;20443;-91
2021/11/07 13:50:32;;;;;;;2.37;1.57;;;13.50;99.90;;;;;;5121987;27;20469;-90
2021/11/07 13:52:59;;;;;;;2.43;1.43;;;13.50;99.90;;;;;;5133338;28;20435;-91
2021/11/07 13:55:34;;;;;;;2.07;1.47;;;13.60;99.90;;;;;;5135258;27;20449;-89
2021/11/07 13:58:20;;;;;;;1.87;1.67;;;13.70;99.90;;;;;;5133325;27;20491;-88
2021/11/07 14:00:53;;;;;;;4.10;2.20;;;13.50;99.90;;;;;;5133351;27;20477;-88
2021/11/07 14:03:23;;;;;;;3.33;2.20;;;13.50;99.90;;;;;;5123088;28;20449;-92
2021/11/07 14:06:01;;;;;;;1.77;1.43;;;13.40;99.90;;;;;;5120109;28;20792;-91
2021/11/07 14:08:28;;;;;;;1.10;0.90;;;13.30;99.90;;;;;;5117810;28;20440;-89
2021/11/07 14:11:04;;;;;;;1.70;1.30;;;13.20;99.90;;;;;;5119640;27;20547;-91
2021/11/07 14:13:39;;;;;;;2.50;1.67;;;13.00;99.90;;;;;;5115782;28;20483;-91
2021/11/07 14:16:06;;;;;;;1.67;1.30;;;12.90;99.90;;;;;;5134846;22;20546;-87
2021/11/07 14:18:40;;;;;;;1.47;1.20;;;12.80;99.90;;;;;;5086689;28;20481;-87
2021/11/07 14:21:09;;;;;;;0.93;0.83;;;12.70;99.90;;;;;;5092714;28;20449;-88
2021/11/07 14:23:40;;;;;;;1.17;1.07;;;12.60;99.90;;;;;;5086893;28;20444;-88
2021/11/07 14:26:10;;;;;;;1.63;1.40;;;12.50;99.90;;;;;;5102815;28;20545;-88
2021/11/07 14:28:59;;;;;;;2.83;1.97;;;12.40;99.90;;;;;;5108675;28;20431;-88
2021/11/07 14:31:29;;;;;;;5.63;3.80;;;12.30;99.90;;;;;;5111787;28;20478;-88
2021/11/07 14:34:03;;;;;;;7.47;5.27;;;12.20;99.90;;;;;;5112418;28;21010;-87
2021/11/07 14:36:42;;;;;;;15.33;7.83;;;12.10;99.90;;;;;;5116087;28;20473;-88
2021/11/07 14:39:24;;;;;;;4.10;2.87;;;12.00;99.90;;;;;;5116102;28;20448;-86
2021/11/07 14:42:07;;;;;;;2.90;1.77;;;12.00;99.90;;;;;;5118641;28;20481;-87
2021/11/07 14:44:39;;;;;;;2.87;1.67;;;12.00;99.90;;;;;;5132949;28;20449;-87
2021/11/07 14:47:21;;;;;;;3.60;1.37;;;12.00;99.90;;;;;;5123279;28;20456;-87
2021/11/07 14:50:01;;;;;;;2.57;1.73;;;12.00;99.90;;;;;;5117210;28;20829;-87
2021/11/07 14:52:45;;;;;;;5.13;1.57;;;12.00;99.90;;;;;;5096783;28;20454;-87
2021/11/07 14:55:19;;;;;;;2.83;1.60;;;12.00;99.90;;;;;;5112637;28;20490;-87
2021/11/07 14:58:11;;;;;;;1.70;1.10;;;11.90;99.90;;;;;;5133328;28;20488;-88
2021/11/07 15:00:44;;;;;;;4.73;3.13;;;11.80;99.90;;;;;;5117934;28;20504;-87
2021/11/07 15:03:18;;;;;;;2.00;1.80;;;11.80;99.90;;;;;;5116435;28;20450;-89
2021/11/07 15:05:49;;;;;;;4.03;2.90;;;11.80;99.90;;;;;;5114835;28;20476;-88
2021/11/07 15:08:22;;;;;;;1.90;1.50;;;11.80;99.90;;;;;;5114965;28;20442;-87
2021/11/07 15:11:03;;;;;;;2.50;1.50;;;11.70;99.90;;;;;;5121442;28;20863;-87
2021/11/07 15:13:38;;;;;;;5.17;2.33;;;11.50;99.90;;;;;;5114271;28;20787;-87
2021/11/07 15:16:20;;;;;;;2.10;1.60;;;11.50;99.90;;;;;;5115928;28;20758;-87
2021/11/07 15:18:53;;;;;;;3.63;1.40;;;11.40;99.90;;;;;;5114724;28;20485;-87
2021/11/07 15:21:29;;;;;;;2.03;1.40;;;11.30;99.90;;;;;;5115187;28;20450;-87
2021/11/07 15:24:02;;;;;;;4.20;1.60;;;11.20;99.90;;;;;;5114515;28;20449;-87
2021/11/07 15:26:37;;;;;;;2.87;1.43;;;11.30;99.90;;;;;;5114948;28;20468;-88
2021/11/07 15:29:08;;;;;;;2.87;2.37;;;11.20;99.90;;;;;;5115709;28;20490;-87
2021/11/07 15:31:35;;;;;;;6.37;2.50;;;11.20;99.90;;;;;;5116298;28;20450;-88
2021/11/07 15:34:05;;;;;;;4.20;2.80;;;11.30;99.90;;;;;;5114735;28;20531;-87
2021/11/07 15:36:39;;;;;;;14.87;7.70;;;11.40;99.90;;;;;;5117078;28;20461;-87
2021/11/07 15:39:10;;;;;;;24.97;13.03;;;11.40;99.90;;;;;;5118785;28;20562;-87
2021/11/07 15:41:38;;;;;;;4.90;3.23;;;11.40;99.90;;;;;;5117214;28;20456;-87
2021/11/07 15:44:07;;;;;;;4.83;1.50;;;11.40;99.90;;;;;;5114506;28;20453;-87
2021/11/07 15:46:38;;;;;;;2.47;1.83;;;11.50;99.90;;;;;;5114467;28;20466;-87
2021/11/07 15:49:05;;;;;;;3.03;1.47;;;11.40;99.90;;;;;;5115267;28;20523;-86
2021/11/07 15:51:38;;;;;;;2.00;1.80;;;11.20;99.90;;;;;;5131014;28;20475;-86
2021/11/07 15:54:12;;;;;;;1.87;1.57;;;11.10;99.90;;;;;;5129096;28;20463;-87
2021/11/07 15:56:44;;;;;;;2.20;2.00;;;11.00;99.90;;;;;;5126893;28;20477;-80
2021/11/07 16:02:06;;;;;;;3.83;2.23;;;10.90;99.90;;;;;;5102811;28;20953;-80
2021/11/07 16:07:17;;;;;;;17.17;10.77;;;10.90;99.90;;;;;;5105346;28;20491;-84
2021/11/07 16:09:58;;;;;;;14.33;8.50;;;10.90;99.90;;;;;;5120342;28;20474;-83
2021/11/07 16:12:32;;;;;;;10.60;5.90;;;10.80;99.90;;;;;;5123091;28;20441;-83
2021/11/07 16:15:11;;;;;;;4.90;3.87;;;10.80;99.90;;;;;;5124420;28;20556;-84
2021/11/07 16:17:39;;;;;;;9.70;6.40;;;10.60;99.90;;;;;;5139946;27;20480;-83
2021/11/07 16:20:11;;;;;;;11.23;7.90;;;10.60;99.90;;;;;;5145847;27;20449;-83
2021/11/07 16:22:42;;;;;;;6.87;4.57;;;10.50;99.90;;;;;;5148070;27;20480;-83
2021/11/07 16:25:09;;;;;;;2.80;2.33;;;10.40;99.90;;;;;;5138639;27;20494;-83
2021/11/07 16:27:38;;;;;;;2.63;2.40;;;10.40;99.90;;;;;;5132570;27;20430;-84
2021/11/07 16:30:06;;;;;;;2.90;2.33;;;10.30;99.90;;;;;;5137301;27;20539;-84
2021/11/07 16:32:34;;;;;;;5.27;3.93;;;10.30;99.90;;;;;;5140261;27;20463;-85
2021/11/07 16:35:07;;;;;;;4.83;3.33;;;10.20;99.90;;;;;;5136883;27;20483;-88